Time,TemperatureF,DewpointF,PressureIn,WindDirection,WindDirectionDegrees,WindSpeedMPH,WindSpeedGustMPH,Humidity,HourlyPrecipIn,Conditions,Clouds,dailyrainin,SoftwareType,DateUTC
2013-08-16 00:06:00,58.2,53.0,30.11,NNE,26,0.0,-999.0,84,-99.99,,,0.00,weatherlink.com 1.10,2013-08-16 04:06:00,
2013-08-16 00:21:00,57.8,54.0,30.11,NNE,26,0.0,-999.0,86,-99.99,,,0.00,weatherlink.com 1.10,2013-08-16 04:21:00,
2013-08-16 00:36:00,57.7,54.0,30.11,NNE,26,0.0,-999.0,86,-99.99,,,0.00,weatherlink.com 1.10,2013-08-16 04:36:00,
2013-08-16 00:51:00,57.8,54.0,30.11,NNE,26,0.0,-999.0,87,-99.99,,,0.00,weatherlink.com 1.10,2013-08-16 04:51:00,
2013-08-16 01:07:00,58.1,55.0,30.11,NNE,26,0.0,-999.0,88,-99.99,,,0.00,weatherlink.com 1.10,2013-08-16 05:07:00,
2013-08-16 01:22:00,57.5,54.0,30.11,NNE,26,0.0,-999.0,88,-99.99,,,0.00,weatherlink.com 1.10,2013-08-16 05:22:00,
2013-08-16 01:36:00,57.2,54.0,30.11,NNE,26,0.0,-999.0,89,-99.99,,,0.00,weatherlink.com 1.10,2013-08-16 05:36:00,
2013-08-16 01:51:00,56.9,54.0,30.11,NNE,26,0.0,-999.0,89,-99.99,,,0.00,weatherlink.com 1.10,2013-08-16 05:51:00,
2013-08-16 02:06:00,56.5,54.0,30.11,NNE,26,0.0,-999.0,90,-99.99,,,0.00,weatherlink.com 1.10,2013-08-16 06:06:00,
2013-08-16 02:21:00,56.1,53.0,30.11,NNE,26,0.0,-999.0,90,-99.99,,,0.00,weatherlink.com 1.10,2013-08-16 06:21:00,
2013-08-16 02:36:00,55.8,53.0,30.11,NNE,26,0.0,-999.0,91,-99.99,,,0.00,weatherlink.com 1.10,2013-08-16 06:36:00,
2013-08-16 02:51:00,55.5,53.0,30.11,NNE,26,0.0,-999.0,92,-99.99,,,0.00,weatherlink.com 1.10,2013-08-16 06:51:00,
2013-08-16 03:07:00,55.5,53.0,30.11,NNE,26,0.0,-999.0,92,-99.99,,,0.00,weatherlink.com 1.10,2013-08-16 07:07:00,
2013-08-16 03:22:00,55.4,53.0,30.11,NNE,26,0.0,-999.0,92,-99.99,,,0.00,weatherlink.com 1.10,2013-08-16 07:22:00,
2013-08-16 03:36:00,55.1,53.0,30.11,NNE,26,0.0,-999.0,93,-99.99,,,0.00,weatherlink.com 1.10,2013-08-16 07:36:00,
2013-08-16 03:51:00,54.8,53.0,30.11,NNE,26,0.0,-999.0,93,-99.99,,,0.00,weatherlink.com 1.10,2013-08-16 07:51:00,
2013-08-16 04:06:00,54.7,53.0,30.11,NNE,26,0.0,-999.0,93,-99.99,,,0.00,weatherlink.com 1.10,2013-08-16 08:06:00,
2013-08-16 04:21:00,54.6,53.0,30.11,NNE,26,0.0,-999.0,93,-99.99,,,0.00,weatherlink.com 1.10,2013-08-16 08:21:00,
2013-08-16 04:36:00,54.3,52.0,30.11,NNE,26,0.0,-999.0,93,-99.99,,,0.00,weatherlink.com 1.10,2013-08-16 08:36:00,
2013-08-16 04:51:00,54.2,52.0,30.11,NNE,26,0.0,-999.0,93,-99.99,,,0.00,weatherlink.com 1.10,2013-08-16 08:51:00,
2013-08-16 05:07:00,54.2,52.0,30.11,NNE,26,0.0,-999.0,93,-99.99,,,0.00,weatherlink.com 1.10,2013-08-16 09:07:00,
2013-08-16 05:21:00,54.8,53.0,30.12,NNE,26,0.0,-999.0,94,-99.99,,,0.00,weatherlink.com 1.10,2013-08-16 09:21:00,
2013-08-16 05:36:00,54.9,53.0,30.12,NNE,26,0.0,-999.0,93,-99.99,,,0.00,weatherlink.com 1.10,2013-08-16 09:36:00,
2013-08-16 05:51:00,54.9,53.0,30.13,NNE,26,0.0,-999.0,93,-99.99,,,0.00,weatherlink.com 1.10,2013-08-16 09:51:00,
2013-08-16 06:06:00,54.8,53.0,30.13,NNE,26,0.0,-999.0,93,-99.99,,,0.00,weatherlink.com 1.10,2013-08-16 10:06:00,
2013-08-16 06:21:00,54.7,53.0,30.13,NNE,26,0.0,-999.0,94,-99.99,,,0.00,weatherlink.com 1.10,2013-08-16 10:21:00,
2013-08-16 06:36:00,54.7,53.0,30.13,NNE,26,0.0,-999.0,94,-99.99,,,0.00,weatherlink.com 1.10,2013-08-16 10:36:00,
2013-08-16 06:52:00,54.8,53.0,30.14,NNE,26,0.0,-999.0,94,-99.99,,,0.00,weatherlink.com 1.10,2013-08-16 10:52:00,
2013-08-16 07:07:00,55.2,54.0,30.14,NNE,26,0.0,-999.0,94,-99.99,,,0.00,weatherlink.com 1.10,2013-08-16 11:07:00,
2013-08-16 07:22:00,55.6,54.0,30.14,NNE,26,0.0,-999.0,94,-99.99,,,0.00,weatherlink.com 1.10,2013-08-16 11:22:00,
2013-08-16 07:37:00,56.3,55.0,30.14,NNE,26,0.0,-999.0,94,-99.99,,,0.00,weatherlink.com 1.10,2013-08-16 11:37:00,
2013-08-16 07:52:00,56.7,55.0,30.15,NNE,26,0.0,-999.0,93,-99.99,,,0.00,weatherlink.com 1.10,2013-08-16 11:52:00,
2013-08-16 08:07:00,57.0,55.0,30.15,NNE,26,0.0,-999.0,93,-99.99,,,0.00,weatherlink.com 1.10,2013-08-16 12:07:00,
2013-08-16 08:22:00,57.7,55.0,30.16,NNE,26,0.0,-999.0,92,-99.99,,,0.00,weatherlink.com 1.10,2013-08-16 12:22:00,
2013-08-16 08:37:00,58.6,56.0,30.15,NNE,26,0.0,-999.0,90,-99.99,,,0.00,weatherlink.com 1.10,2013-08-16 12:37:00,
2013-08-16 08:52:00,60.3,57.0,30.15,NNE,26,0.0,-999.0,87,-99.99,,,0.00,weatherlink.com 1.10,2013-08-16 12:52:00,
2013-08-16 09:07:00,61.9,57.0,30.15,NNE,26,0.0,-999.0,85,-99.99,,,0.00,weatherlink.com 1.10,2013-08-16 13:07:00,
2013-08-16 09:22:00,64.5,58.0,30.15,NNE,26,0.0,-999.0,79,-99.99,,,0.00,weatherlink.com 1.10,2013-08-16 13:22:00,
2013-08-16 09:37:00,64.5,58.0,30.15,NNE,29,0.0,-999.0,79,-99.99,,,0.00,weatherlink.com 1.10,2013-08-16 13:37:00,
2013-08-16 09:52:00,66.0,57.0,30.15,NE,42,0.0,-999.0,72,-99.99,,,0.00,weatherlink.com 1.10,2013-08-16 13:52:00,
2013-08-16 10:07:00,66.1,56.0,30.15,ENE,66,2.0,-999.0,71,-99.99,,,0.00,weatherlink.com 1.10,2013-08-16 14:07:00,
2013-08-16 10:22:00,68.0,58.0,30.15,NNE,15,4.0,-999.0,70,-99.99,,,0.00,weatherlink.com 1.10,2013-08-16 14:22:00,
2013-08-16 10:37:00,68.5,57.0,30.15,NE,49,0.0,-999.0,66,-99.99,,,0.00,weatherlink.com 1.10,2013-08-16 14:37:00,
2013-08-16 10:52:00,68.6,58.0,30.15,NE,49,0.0,-999.0,68,-99.99,,,0.00,weatherlink.com 1.10,2013-08-16 14:52:00,
2013-08-16 11:07:00,70.7,57.0,30.15,SE,140,0.0,-999.0,63,-99.99,,,0.00,weatherlink.com 1.10,2013-08-16 15:07:00,
2013-08-16 11:23:00,72.3,58.0,30.15,SE,134,4.0,-999.0,62,-99.99,,,0.00,weatherlink.com 1.10,2013-08-16 15:23:00,
2013-08-16 11:37:00,71.8,57.0,30.15,NE,38,0.0,-999.0,59,-99.99,,,0.00,weatherlink.com 1.10,2013-08-16 15:37:00,
2013-08-16 11:53:00,73.3,57.0,30.14,SE,132,0.0,-999.0,57,-99.99,,,0.00,weatherlink.com 1.10,2013-08-16 15:53:00,
2013-08-16 12:07:00,72.1,56.0,30.14,NNW,343,0.0,-999.0,57,-99.99,,,0.00,weatherlink.com 1.10,2013-08-16 16:07:00,
2013-08-16 12:22:00,73.7,56.0,30.14,NE,47,0.0,-999.0,54,-99.99,,,0.00,weatherlink.com 1.10,2013-08-16 16:22:00,
2013-08-16 12:37:00,74.9,55.0,30.14,NE,38,10.0,-999.0,51,-99.99,,,0.00,weatherlink.com 1.10,2013-08-16 16:37:00,
2013-08-16 12:52:00,74.8,55.0,30.14,NW,315,0.0,-999.0,51,-99.99,,,0.00,weatherlink.com 1.10,2013-08-16 16:52:00,
2013-08-16 13:07:00,74.1,56.0,30.14,SE,146,1.0,-999.0,53,-99.99,,,0.00,weatherlink.com 1.10,2013-08-16 17:07:00,
2013-08-16 13:23:00,74.5,57.0,30.13,ENE,67,0.0,-999.0,54,-99.99,,,0.00,weatherlink.com 1.10,2013-08-16 17:23:00,
2013-08-16 13:39:00,75.7,58.0,30.13,NNE,28,3.0,-999.0,54,-99.99,,,0.00,weatherlink.com 1.10,2013-08-16 17:39:00,
2013-08-16 13:53:00,77.4,56.0,30.13,ESE,121,5.0,-999.0,48,-99.99,,,0.00,weatherlink.com 1.10,2013-08-16 17:53:00,
2013-08-16 14:08:00,77.3,57.0,30.13,SE,136,0.0,-999.0,49,-99.99,,,0.00,weatherlink.com 1.10,2013-08-16 18:08:00,
2013-08-16 14:23:00,78.2,54.0,30.13,SSE,163,0.0,-999.0,44,-99.99,,,0.00,weatherlink.com 1.10,2013-08-16 18:23:00,
2013-08-16 14:38:00,77.4,56.0,30.13,SE,146,0.0,-999.0,47,-99.99,,,0.00,weatherlink.com 1.10,2013-08-16 18:38:00,
2013-08-16 14:53:00,76.4,54.0,30.12,North,355,3.0,-999.0,46,-99.99,,,0.00,weatherlink.com 1.10,2013-08-16 18:53:00,
2013-08-16 15:08:00,78.4,55.0,30.12,SE,133,0.0,-999.0,44,-99.99,,,0.00,weatherlink.com 1.10,2013-08-16 19:08:00,
2013-08-16 15:23:00,76.2,55.0,30.12,SSE,154,4.0,-999.0,48,-99.99,,,0.00,weatherlink.com 1.10,2013-08-16 19:23:00,
2013-08-16 15:38:00,78.2,56.0,30.12,ENE,76,0.0,-999.0,47,-99.99,,,0.00,weatherlink.com 1.10,2013-08-16 19:38:00,
2013-08-16 15:54:00,77.4,54.0,30.11,South,177,0.0,-999.0,45,-99.99,,,0.00,weatherlink.com 1.10,2013-08-16 19:54:00,
2013-08-16 16:08:00,80.1,56.0,30.11,SSE,148,0.0,-999.0,44,-99.99,,,0.00,weatherlink.com 1.10,2013-08-16 20:08:00,
2013-08-16 16:23:00,78.9,56.0,30.11,South,170,0.0,-999.0,46,-99.99,,,0.00,weatherlink.com 1.10,2013-08-16 20:23:00,
2013-08-16 16:38:00,77.6,56.0,30.11,SE,133,0.0,-999.0,48,-99.99,,,0.00,weatherlink.com 1.10,2013-08-16 20:38:00,
2013-08-16 16:53:00,76.5,55.0,30.11,SE,124,0.0,-999.0,47,-99.99,,,0.00,weatherlink.com 1.10,2013-08-16 20:53:00,
2013-08-16 17:08:00,77.2,56.0,30.12,SSE,161,0.0,-999.0,48,-99.99,,,0.00,weatherlink.com 1.10,2013-08-16 21:08:00,
2013-08-16 17:23:00,76.1,57.0,30.12,SSE,161,0.0,-999.0,51,-99.99,,,0.00,weatherlink.com 1.10,2013-08-16 21:23:00,
2013-08-16 17:38:00,75.3,56.0,30.12,SE,139,0.0,-999.0,52,-99.99,,,0.00,weatherlink.com 1.10,2013-08-16 21:38:00,
2013-08-16 17:53:00,74.4,58.0,30.12,SE,139,0.0,-999.0,56,-99.99,,,0.00,weatherlink.com 1.10,2013-08-16 21:53:00,
2013-08-16 18:08:00,74.3,59.0,30.13,SE,139,0.0,-999.0,59,-99.99,,,0.00,weatherlink.com 1.10,2013-08-16 22:08:00,
2013-08-16 18:23:00,75.5,57.0,30.13,SE,139,0.0,-999.0,52,-99.99,,,0.00,weatherlink.com 1.10,2013-08-16 22:23:00,
2013-08-16 18:38:00,74.7,59.0,30.13,SE,139,0.0,-999.0,59,-99.99,,,0.00,weatherlink.com 1.10,2013-08-16 22:38:00,
2013-08-16 18:53:00,72.8,60.0,30.13,SE,139,0.0,-999.0,64,-99.99,,,0.00,weatherlink.com 1.10,2013-08-16 22:53:00,
2013-08-16 19:08:00,71.3,59.0,30.14,SE,139,0.0,-999.0,65,-99.99,,,0.00,weatherlink.com 1.10,2013-08-16 23:08:00,
2013-08-16 19:23:00,71.8,58.0,30.14,SE,139,0.0,-999.0,62,-99.99,,,0.00,weatherlink.com 1.10,2013-08-16 23:23:00,
2013-08-16 19:38:00,71.4,59.0,30.14,SE,139,0.0,-999.0,66,-99.99,,,0.00,weatherlink.com 1.10,2013-08-16 23:38:00,
2013-08-16 19:53:00,69.9,59.0,30.14,SE,139,0.0,-999.0,69,-99.99,,,0.00,weatherlink.com 1.10,2013-08-16 23:53:00,
2013-08-16 20:08:00,68.7,59.0,30.15,SE,139,0.0,-999.0,72,-99.99,,,0.00,weatherlink.com 1.10,2013-08-17 00:08:00,
2013-08-16 20:23:00,67.5,59.0,30.15,SE,139,0.0,-999.0,74,-99.99,,,0.00,weatherlink.com 1.10,2013-08-17 00:23:00,
2013-08-16 20:39:00,66.5,59.0,30.16,SE,139,0.0,-999.0,76,-99.99,,,0.00,weatherlink.com 1.10,2013-08-17 00:39:00,
2013-08-16 20:54:00,66.1,58.0,30.16,SE,139,0.0,-999.0,76,-99.99,,,0.00,weatherlink.com 1.10,2013-08-17 00:54:00,
2013-08-16 21:09:00,65.8,58.0,30.16,SE,139,0.0,-999.0,77,-99.99,,,0.00,weatherlink.com 1.10,2013-08-17 01:09:00,
2013-08-16 21:25:00,65.2,59.0,30.16,SE,139,0.0,-999.0,79,-99.99,,,0.00,weatherlink.com 1.10,2013-08-17 01:25:00,
2013-08-16 21:40:00,64.7,58.0,30.16,SE,139,0.0,-999.0,80,-99.99,,,0.00,weatherlink.com 1.10,2013-08-17 01:40:00,
2013-08-16 21:54:00,64.3,58.0,30.16,SE,139,0.0,-999.0,80,-99.99,,,0.00,weatherlink.com 1.10,2013-08-17 01:54:00,
2013-08-16 22:09:00,64.0,58.0,30.17,SE,139,0.0,-999.0,80,-99.99,,,0.00,weatherlink.com 1.10,2013-08-17 02:09:00,
2013-08-16 22:24:00,64.0,57.0,30.17,SE,139,0.0,-999.0,79,-99.99,,,0.00,weatherlink.com 1.10,2013-08-17 02:24:00,
2013-08-16 22:39:00,64.3,57.0,30.17,SE,139,0.0,-999.0,78,-99.99,,,0.00,weatherlink.com 1.10,2013-08-17 02:39:00,
2013-08-16 22:54:00,64.1,57.0,30.17,SE,139,0.0,-999.0,78,-99.99,,,0.00,weatherlink.com 1.10,2013-08-17 02:54:00,
2013-08-16 23:09:00,63.6,57.0,30.18,SE,139,0.0,-999.0,79,-99.99,,,0.00,weatherlink.com 1.10,2013-08-17 03:09:00,
2013-08-16 23:24:00,62.7,56.0,30.18,SE,139,0.0,-999.0,80,-99.99,,,0.00,weatherlink.com 1.10,2013-08-17 03:24:00,
2013-08-16 23:39:00,61.8,56.0,30.18,SE,139,0.0,-999.0,82,-99.99,,,0.00,weatherlink.com 1.10,2013-08-17 03:39:00,
2013-08-16 23:54:00,61.0,56.0,30.18,SE,139,0.0,-999.0,83,-99.99,,,0.00,weatherlink.com 1.10,2013-08-17 03:54:00,